createdAt,value
2022-11-12T00:00:43.503Z,0.00
2022-11-12T00:01:43.530Z,0.00
2022-11-12T00:02:43.394Z,0.00
2022-11-12T00:03:43.399Z,0.00
2022-11-12T00:04:43.359Z,0.00
2022-11-12T00:05:43.344Z,0.00
2022-11-12T00:06:43.421Z,0.00
2022-11-12T00:07:43.328Z,0.00
2022-11-12T00:08:43.295Z,0.00
2022-11-12T00:09:43.273Z,0.00
2022-11-12T00:10:43.258Z,0.00
2022-11-12T00:11:43.269Z,0.00
2022-11-12T00:12:43.222Z,0.00
2022-11-12T00:13:43.203Z,0.00
2022-11-12T00:14:43.186Z,0.00
2022-11-12T00:15:43.190Z,0.00
2022-11-12T00:16:43.254Z,0.00
2022-11-12T00:17:43.127Z,0.00
2022-11-12T00:18:43.117Z,0.00
2022-11-12T00:19:43.095Z,0.00
2022-11-12T00:20:43.077Z,0.00
2022-11-12T00:21:43.085Z,0.00
2022-11-12T00:22:43.042Z,0.00
2022-11-12T00:23:43.023Z,0.00
2022-11-12T00:24:43.004Z,0.00
2022-11-12T00:25:42.987Z,0.00
2022-11-12T00:26:43.003Z,0.00
2022-11-12T00:27:42.949Z,0.00
2022-11-12T00:28:42.933Z,0.00
2022-11-12T00:29:42.919Z,0.00
2022-11-12T00:30:42.899Z,0.00
2022-11-12T00:31:42.916Z,0.00
2022-11-12T00:32:42.935Z,0.00
2022-11-12T00:33:42.849Z,0.00
2022-11-12T00:34:42.834Z,0.00
2022-11-12T00:35:42.813Z,0.00
2022-11-12T00:36:42.825Z,0.00
2022-11-12T00:37:42.783Z,0.00
2022-11-12T00:38:42.775Z,0.00
2022-11-12T00:39:42.752Z,0.00
2022-11-12T00:40:42.727Z,0.00
2022-11-12T00:41:42.746Z,0.00
2022-11-12T00:42:42.697Z,0.00
2022-11-12T00:43:42.678Z,0.00
2022-11-12T00:44:42.659Z,0.00
2022-11-12T00:45:42.640Z,0.00
2022-11-12T00:46:42.649Z,0.00
2022-11-12T00:47:42.602Z,0.00
2022-11-12T00:48:42.657Z,0.00
2022-11-12T00:49:42.561Z,0.00
2022-11-12T00:50:42.549Z,0.00
2022-11-12T00:51:42.554Z,0.00
2022-11-12T00:52:42.514Z,0.00
2022-11-12T00:53:42.492Z,0.00
2022-11-12T00:54:42.475Z,0.00
2022-11-12T00:55:42.457Z,0.00
2022-11-12T00:56:42.464Z,0.00
2022-11-12T00:57:42.450Z,0.00
2022-11-12T00:58:42.396Z,0.00
2022-11-12T00:59:42.385Z,0.00
2022-11-12T01:00:42.399Z,0.00
2022-11-12T01:01:42.371Z,0.00
2022-11-12T01:02:46.391Z,0.00
2022-11-12T01:03:44.339Z,0.00
2022-11-12T01:04:42.368Z,0.00
2022-11-12T01:05:42.269Z,0.00
2022-11-12T01:06:42.305Z,0.00
2022-11-12T01:07:42.239Z,0.00
2022-11-12T01:08:42.218Z,0.00
2022-11-12T01:09:42.200Z,0.00
2022-11-12T01:10:42.174Z,0.00
2022-11-12T01:11:42.179Z,0.00
2022-11-12T01:12:42.142Z,0.00
2022-11-12T01:13:44.295Z,0.00
2022-11-12T01:14:43.103Z,0.00
2022-11-12T01:15:42.084Z,0.00
2022-11-12T01:16:42.097Z,0.00
2022-11-12T01:17:42.051Z,0.00
2022-11-12T01:18:42.030Z,0.00
2022-11-12T01:19:42.021Z,0.00
2022-11-12T01:20:42.060Z,0.00
2022-11-12T01:21:41.999Z,0.00
2022-11-12T01:22:41.964Z,0.00
2022-11-12T01:23:41.945Z,0.00
2022-11-12T01:24:41.920Z,0.00
2022-11-12T01:25:41.900Z,0.00
2022-11-12T01:26:41.911Z,0.00
2022-11-12T01:27:41.865Z,0.00
2022-11-12T01:28:41.844Z,0.00
2022-11-12T01:29:41.830Z,0.00
2022-11-12T01:30:41.807Z,0.00
2022-11-12T01:31:41.824Z,0.00
2022-11-12T01:32:41.780Z,0.00
2022-11-12T01:33:41.758Z,0.00
2022-11-12T01:34:41.746Z,0.00
2022-11-12T01:35:41.725Z,0.00
2022-11-12T01:36:41.811Z,0.00
2022-11-12T01:37:41.690Z,0.00
2022-11-12T01:38:41.669Z,0.00
2022-11-12T01:39:41.658Z,0.00
2022-11-12T01:40:41.638Z,0.00
2022-11-12T01:41:41.636Z,0.00
2022-11-12T01:42:41.601Z,0.00
2022-11-12T01:43:41.574Z,0.00
2022-11-12T01:44:41.568Z,0.00
2022-11-12T01:45:41.553Z,0.00
2022-11-12T01:46:41.550Z,0.00
2022-11-12T01:47:41.508Z,0.00
2022-11-12T01:48:41.500Z,0.00
2022-11-12T01:49:41.471Z,0.00
2022-11-12T01:50:41.459Z,0.00
2022-11-12T01:51:41.464Z,0.00
2022-11-12T01:52:41.494Z,0.00
2022-11-12T01:53:41.415Z,0.00
2022-11-12T01:54:41.385Z,0.00
2022-11-12T01:55:41.362Z,0.00
2022-11-12T01:56:42.660Z,0.00
2022-11-12T01:57:42.333Z,0.00
2022-11-12T01:58:41.314Z,0.00
2022-11-12T01:59:41.294Z,0.00
2022-11-12T02:00:41.274Z,0.00
2022-11-12T02:01:41.281Z,0.00
2022-11-12T02:02:41.238Z,0.00
2022-11-12T02:03:41.226Z,0.00
2022-11-12T02:04:41.216Z,0.00
2022-11-12T02:05:41.178Z,0.00
2022-11-12T02:06:42.254Z,0.00
2022-11-12T02:07:41.149Z,0.00
2022-11-12T02:08:41.210Z,0.00
2022-11-12T02:09:41.109Z,0.00
2022-11-12T02:10:41.096Z,0.00
2022-11-12T02:11:41.105Z,0.00
2022-11-12T02:12:41.057Z,0.00
2022-11-12T02:13:41.036Z,0.00
2022-11-12T02:14:41.015Z,0.00
2022-11-12T02:15:40.993Z,0.00
2022-11-12T02:16:41.011Z,0.00
2022-11-12T02:17:40.961Z,0.00
2022-11-12T02:18:40.944Z,0.00
2022-11-12T02:19:40.928Z,0.00
2022-11-12T02:20:40.904Z,0.00
2022-11-12T02:21:40.910Z,0.00
2022-11-12T02:22:40.879Z,0.00
2022-11-12T02:23:40.867Z,0.00
2022-11-12T02:24:40.910Z,0.00
2022-11-12T02:25:40.835Z,0.00
2022-11-12T02:26:40.834Z,0.00
2022-11-12T02:27:40.781Z,0.00
2022-11-12T02:28:40.769Z,0.00
2022-11-12T02:29:40.746Z,0.00
2022-11-12T02:30:40.723Z,0.00
2022-11-12T02:31:40.742Z,0.00
2022-11-12T02:32:40.687Z,0.00
2022-11-12T02:33:40.669Z,0.00
2022-11-12T02:34:40.658Z,0.00
2022-11-12T02:35:40.631Z,0.00
2022-11-12T02:36:40.652Z,0.00
2022-11-12T02:37:40.593Z,0.00
2022-11-12T02:38:40.575Z,0.00
2022-11-12T02:39:40.561Z,0.00
2022-11-12T02:40:40.618Z,0.00
2022-11-12T02:41:40.549Z,0.00
2022-11-12T02:42:40.516Z,0.00
2022-11-12T02:43:40.486Z,0.00
2022-11-12T02:44:40.470Z,0.00
2022-11-12T02:45:40.483Z,0.00
2022-11-12T02:46:40.461Z,0.00
2022-11-12T02:47:40.422Z,0.00
2022-11-12T02:48:40.388Z,0.00
2022-11-12T02:49:40.377Z,0.00
2022-11-12T02:50:40.353Z,0.00
2022-11-12T02:51:40.366Z,0.00
2022-11-12T02:52:40.321Z,0.00
2022-11-12T02:53:40.309Z,0.00
2022-11-12T02:54:40.285Z,0.00
2022-11-12T02:55:40.266Z,0.00
2022-11-12T02:56:40.359Z,0.00
2022-11-12T02:57:40.229Z,0.00
2022-11-12T02:58:40.216Z,0.00
2022-11-12T02:59:40.197Z,0.00
2022-11-12T03:00:40.228Z,0.00
2022-11-12T03:01:40.183Z,0.00
2022-11-12T03:02:40.130Z,0.00
2022-11-12T03:03:41.119Z,0.00
2022-11-12T03:04:40.105Z,0.00
2022-11-12T03:05:40.093Z,0.00
2022-11-12T03:06:40.291Z,0.00
2022-11-12T03:07:40.048Z,0.00
2022-11-12T03:08:40.042Z,0.00
2022-11-12T03:09:40.028Z,0.00
2022-11-12T03:10:40.006Z,0.00
2022-11-12T03:11:40.010Z,0.00
2022-11-12T03:12:40.037Z,0.00
2022-11-12T03:13:39.945Z,0.00
2022-11-12T03:14:39.927Z,0.00
2022-11-12T03:15:39.914Z,0.00
2022-11-12T03:16:39.921Z,0.00
2022-11-12T03:17:39.875Z,0.00
2022-11-12T03:18:39.855Z,0.00
2022-11-12T03:19:39.834Z,0.00
2022-11-12T03:20:39.819Z,0.00
2022-11-12T03:21:39.826Z,0.00
2022-11-12T03:22:39.781Z,0.00
2022-11-12T03:23:39.765Z,0.00
2022-11-12T03:24:39.746Z,0.00
2022-11-12T03:25:39.729Z,0.00
2022-11-12T03:26:39.741Z,0.00
2022-11-12T03:27:39.696Z,0.00
2022-11-12T03:28:39.748Z,0.00
2022-11-12T03:29:39.663Z,0.00
2022-11-12T03:30:39.640Z,0.00
2022-11-12T03:31:39.649Z,0.00
2022-11-12T03:32:39.607Z,0.00
2022-11-12T03:33:39.590Z,0.00
2022-11-12T03:34:39.564Z,0.00
2022-11-12T03:35:39.555Z,0.00
2022-11-12T03:36:39.546Z,0.00
2022-11-12T03:37:40.531Z,0.00
2022-11-12T03:38:39.498Z,0.00
2022-11-12T03:39:39.700Z,0.00
2022-11-12T03:40:39.486Z,0.00
2022-11-12T03:41:39.492Z,0.00
2022-11-12T03:42:39.434Z,0.00
2022-11-12T03:43:39.436Z,0.00
2022-11-12T03:44:39.466Z,0.00
2022-11-12T03:45:39.380Z,0.00
2022-11-12T03:46:44.049Z,0.00
2022-11-12T03:47:41.340Z,0.00
2022-11-12T03:48:39.326Z,0.00
2022-11-12T03:49:39.310Z,0.00
2022-11-12T03:50:39.288Z,0.00
2022-11-12T03:51:39.424Z,0.00
2022-11-12T03:52:39.257Z,0.00
2022-11-12T03:53:39.245Z,0.00
2022-11-12T03:54:39.215Z,0.00
2022-11-12T03:55:39.202Z,0.00
2022-11-12T03:56:39.206Z,0.00
2022-11-12T03:57:39.170Z,0.00
2022-11-12T03:58:39.148Z,0.00
2022-11-12T03:59:39.126Z,0.00
2022-11-12T04:00:39.181Z,0.00
2022-11-12T04:01:39.169Z,0.00
2022-11-12T04:02:39.076Z,0.00
2022-11-12T04:03:39.064Z,0.00
2022-11-12T04:04:39.038Z,0.00
2022-11-12T04:05:39.021Z,0.00
2022-11-12T04:06:39.050Z,0.00
2022-11-12T04:07:38.987Z,0.00
2022-11-12T04:08:38.966Z,0.00
2022-11-12T04:09:38.945Z,0.00
2022-11-12T04:10:38.950Z,0.00
2022-11-12T04:11:38.939Z,0.00
2022-11-12T04:12:38.911Z,0.00
2022-11-12T04:13:38.885Z,0.00
2022-11-12T04:14:38.869Z,0.00
2022-11-12T04:15:38.850Z,0.00
2022-11-12T04:16:38.922Z,0.00
2022-11-12T04:17:38.838Z,0.00
2022-11-12T04:18:38.823Z,0.00
2022-11-12T04:19:38.798Z,0.00
2022-11-12T04:20:38.754Z,0.00
2022-11-12T04:21:38.763Z,0.00
2022-11-12T04:22:38.755Z,0.00
2022-11-12T04:23:38.699Z,0.00
2022-11-12T04:24:38.684Z,0.00
2022-11-12T04:25:38.665Z,0.00
2022-11-12T04:26:38.669Z,0.00
2022-11-12T04:27:38.630Z,0.00
2022-11-12T04:28:38.612Z,0.00
2022-11-12T04:29:38.597Z,0.00
2022-11-12T04:30:38.593Z,0.00
2022-11-12T04:31:38.588Z,0.00
2022-11-12T04:32:38.613Z,0.00
2022-11-12T04:33:38.519Z,0.00
2022-11-12T04:34:38.559Z,0.00
2022-11-12T04:35:38.489Z,0.00
2022-11-12T04:36:38.569Z,0.00
2022-11-12T04:37:38.440Z,0.00
2022-11-12T04:38:39.435Z,0.00
2022-11-12T04:39:38.411Z,0.00
2022-11-12T04:40:38.399Z,0.00
2022-11-12T04:41:38.408Z,0.00
2022-11-12T04:42:38.360Z,0.00
2022-11-12T04:43:38.339Z,0.00
2022-11-12T04:44:38.331Z,0.00
2022-11-12T04:45:38.310Z,0.00
2022-11-12T04:46:38.315Z,0.00
2022-11-12T04:47:38.269Z,0.00
2022-11-12T04:48:38.325Z,0.00
2022-11-12T04:49:38.237Z,0.00
2022-11-12T04:50:38.211Z,0.00
2022-11-12T04:51:38.223Z,0.00
2022-11-12T04:52:38.185Z,0.00
2022-11-12T04:53:38.160Z,0.00
2022-11-12T04:54:38.260Z,0.00
2022-11-12T04:55:38.172Z,0.00
2022-11-12T04:56:38.161Z,0.00
2022-11-12T04:57:38.099Z,0.00
2022-11-12T04:58:38.075Z,0.00
2022-11-12T04:59:38.053Z,0.00
2022-11-12T05:00:38.052Z,0.00
2022-11-12T05:01:38.067Z,0.00
2022-11-12T05:02:37.997Z,0.00
2022-11-12T05:03:37.987Z,0.00
2022-11-12T05:04:38.027Z,0.00
2022-11-12T05:05:37.945Z,0.00
2022-11-12T05:06:37.994Z,0.00
2022-11-12T05:07:37.918Z,0.00
2022-11-12T05:08:37.891Z,0.00
2022-11-12T05:09:37.899Z,0.00
2022-11-12T05:10:37.877Z,0.00
2022-11-12T05:11:37.861Z,0.00
2022-11-12T05:12:38.821Z,0.00
2022-11-12T05:13:37.809Z,0.00
2022-11-12T05:14:37.803Z,0.00
2022-11-12T05:15:37.763Z,0.00
2022-11-12T05:16:37.790Z,0.00
2022-11-12T05:17:37.738Z,0.00
2022-11-12T05:18:37.720Z,0.00
2022-11-12T05:19:37.698Z,0.00
2022-11-12T05:20:37.756Z,0.00
2022-11-12T05:21:43.216Z,0.00
2022-11-12T05:22:47.888Z,0.00
2022-11-12T05:23:39.635Z,0.00
2022-11-12T05:24:42.277Z,0.00
2022-11-12T05:25:39.599Z,0.00
2022-11-12T05:26:37.605Z,0.00
2022-11-12T05:27:37.564Z,0.00
2022-11-12T05:28:37.547Z,0.00
2022-11-12T05:29:37.532Z,0.00
2022-11-12T05:30:37.509Z,0.00
2022-11-12T05:31:37.519Z,0.00
2022-11-12T05:32:37.482Z,0.00
2022-11-12T05:33:37.459Z,0.00
2022-11-12T05:34:37.439Z,0.00
2022-11-12T05:35:37.423Z,0.00
2022-11-12T05:36:37.510Z,0.00
2022-11-12T05:37:37.391Z,0.00
2022-11-12T05:38:37.375Z,0.00
2022-11-12T05:39:37.360Z,0.00
2022-11-12T05:40:37.336Z,0.00
2022-11-12T05:42:05.850Z,0.00
2022-11-12T05:42:39.304Z,0.00
2022-11-12T05:43:37.284Z,0.00
2022-11-12T05:44:37.266Z,0.00
2022-11-12T05:45:37.285Z,0.00
2022-11-12T05:46:37.260Z,0.00
2022-11-12T05:47:37.218Z,0.00
2022-11-12T05:48:37.199Z,0.00
2022-11-12T05:49:37.181Z,0.00
2022-11-12T05:50:45.418Z,0.00
2022-11-12T05:51:39.175Z,0.00
2022-11-12T05:52:37.200Z,4.00
2022-11-12T05:53:37.113Z,0.00
2022-11-12T05:54:37.097Z,0.00
2022-11-12T05:55:37.360Z,0.00
2022-11-12T05:56:38.099Z,0.00
2022-11-12T05:57:37.040Z,4.00
2022-11-12T05:58:37.024Z,0.00
2022-11-12T05:59:37.006Z,4.00
2022-11-12T06:00:36.992Z,4.00
2022-11-12T06:01:37.002Z,4.00
2022-11-12T06:02:37.009Z,4.00
2022-11-12T06:03:36.943Z,4.00
2022-11-12T06:04:36.931Z,4.00
2022-11-12T06:05:36.928Z,4.00
2022-11-12T06:06:36.902Z,8.00
2022-11-12T06:07:36.893Z,8.00
2022-11-12T06:08:36.930Z,8.00
2022-11-12T06:09:36.881Z,8.00
2022-11-12T06:10:36.814Z,12.00
2022-11-12T06:11:36.797Z,12.00
2022-11-12T06:12:36.807Z,16.00
2022-11-12T06:13:36.767Z,20.00
2022-11-12T06:14:36.750Z,20.00
2022-11-12T06:15:39.462Z,28.00
2022-11-12T06:16:37.709Z,32.00
2022-11-12T06:17:36.725Z,36.00
2022-11-12T06:18:36.680Z,40.00
2022-11-12T06:19:36.661Z,48.00
2022-11-12T06:20:36.642Z,56.00
2022-11-12T06:21:36.624Z,60.00
2022-11-12T06:22:36.632Z,72.00
2022-11-12T06:23:36.595Z,80.00
2022-11-12T06:24:36.646Z,88.00
2022-11-12T06:25:36.578Z,100.00
2022-11-12T06:26:36.540Z,112.00
2022-11-12T06:27:36.676Z,124.00
2022-11-12T06:28:36.542Z,144.00
2022-11-12T06:29:37.479Z,164.00
2022-11-12T06:30:36.467Z,184.00
2022-11-12T06:31:36.455Z,204.00
2022-11-12T06:32:36.788Z,232.00
2022-11-12T06:33:36.417Z,256.00
2022-11-12T06:34:36.397Z,284.00
2022-11-12T06:35:39.085Z,316.00
2022-11-12T06:36:38.368Z,356.00
2022-11-12T06:37:36.558Z,396.00
2022-11-12T06:38:36.332Z,440.00
2022-11-12T06:39:36.308Z,484.00
2022-11-12T06:40:36.476Z,536.00
2022-11-12T06:41:36.271Z,596.00
2022-11-12T06:42:36.281Z,656.00
2022-11-12T06:43:36.243Z,720.00
2022-11-12T06:44:36.218Z,796.00
2022-11-12T06:45:36.200Z,880.00
2022-11-12T06:46:36.188Z,988.00
2022-11-12T06:47:36.196Z,1116.00
2022-11-12T06:48:36.162Z,1268.00
2022-11-12T06:49:36.137Z,1556.00
2022-11-12T06:50:36.116Z,1988.00
2022-11-12T06:51:36.104Z,3176.00
2022-11-12T06:52:36.107Z,4652.00
2022-11-12T06:53:36.073Z,4436.00
2022-11-12T06:54:36.049Z,4308.00
2022-11-12T06:55:36.069Z,5252.00
2022-11-12T06:56:36.092Z,6628.00
2022-11-12T06:57:36.024Z,7072.00
2022-11-12T06:58:35.977Z,7320.00
2022-11-12T06:59:35.958Z,8608.00
2022-11-12T07:00:35.947Z,12192.00
2022-11-12T07:01:35.978Z,14272.00
2022-11-12T07:02:35.946Z,14880.00
2022-11-12T07:03:35.887Z,14976.00
2022-11-12T07:04:35.873Z,14912.00
2022-11-12T07:05:35.844Z,16928.00
2022-11-12T07:06:35.896Z,18656.00
2022-11-12T07:07:35.829Z,17792.00
2022-11-12T07:08:35.786Z,15680.00
2022-11-12T07:09:35.767Z,16832.00
2022-11-12T07:10:35.746Z,21184.00
2022-11-12T07:11:35.728Z,26496.00
2022-11-12T07:12:35.805Z,29664.00
2022-11-12T07:13:35.679Z,30880.00
2022-11-12T07:14:35.660Z,29728.00
2022-11-12T07:15:35.638Z,24832.00
2022-11-12T07:16:35.615Z,16896.00
2022-11-12T07:17:35.619Z,9020.00
2022-11-12T07:18:35.585Z,4844.00
2022-11-12T07:19:35.547Z,4556.00
2022-11-12T07:20:35.523Z,4552.00
2022-11-12T07:21:35.516Z,4544.00
2022-11-12T07:22:35.513Z,4540.00
2022-11-12T07:23:35.458Z,4524.00
2022-11-12T07:24:35.446Z,4512.00
2022-11-12T07:25:35.414Z,4512.00
2022-11-12T07:26:35.421Z,4536.00
2022-11-12T07:27:35.403Z,4560.00
2022-11-12T07:28:35.433Z,4584.00
2022-11-12T07:29:47.405Z,4608.00
2022-11-12T07:30:37.321Z,4644.00
2022-11-12T07:31:35.321Z,4692.00
2022-11-12T07:32:38.669Z,4752.00
2022-11-12T07:33:37.248Z,4824.00
2022-11-12T07:34:35.230Z,4876.00
2022-11-12T07:35:35.211Z,4920.00
2022-11-12T07:36:35.182Z,4944.00
2022-11-12T07:37:35.186Z,4960.00
2022-11-12T07:38:35.146Z,4972.00
2022-11-12T07:39:35.131Z,4992.00
2022-11-12T07:40:35.098Z,5016.00
2022-11-12T07:41:35.078Z,5036.00
2022-11-12T07:42:35.085Z,5056.00
2022-11-12T07:43:35.038Z,5076.00
2022-11-12T07:44:35.096Z,5104.00
2022-11-12T07:45:35.004Z,5144.00
2022-11-12T07:46:35.008Z,5200.00
2022-11-12T07:47:34.985Z,5252.00
2022-11-12T07:48:34.938Z,5308.00
2022-11-12T07:49:34.919Z,5364.00
2022-11-12T07:50:34.902Z,5424.00
2022-11-12T07:51:34.884Z,5496.00
2022-11-12T07:52:34.891Z,5576.00
2022-11-12T07:53:34.847Z,5648.00
2022-11-12T07:54:34.819Z,5724.00
2022-11-12T07:55:34.799Z,5804.00
2022-11-12T07:56:34.782Z,5872.00
2022-11-12T07:57:34.786Z,5952.00
2022-11-12T07:58:34.747Z,6024.00
2022-11-12T07:59:34.723Z,6100.00
2022-11-12T08:00:34.776Z,6176.00
2022-11-12T08:01:34.769Z,6256.00
2022-11-12T08:02:34.664Z,6348.00
2022-11-12T08:03:34.644Z,6440.00
2022-11-12T08:04:34.622Z,6536.00
2022-11-12T08:05:34.602Z,6644.00
2022-11-12T08:06:34.645Z,6764.00
2022-11-12T08:07:34.659Z,6912.00
2022-11-12T08:08:34.547Z,7088.00
2022-11-12T08:09:34.524Z,7272.00
2022-11-12T08:10:34.503Z,7464.00
2022-11-12T08:11:34.514Z,7664.00
2022-11-12T08:12:34.465Z,7856.00
2022-11-12T08:13:34.446Z,8048.00
2022-11-12T08:14:34.429Z,8236.00
2022-11-12T08:15:34.408Z,8404.00
2022-11-12T08:16:34.493Z,8572.00
2022-11-12T08:17:34.372Z,8704.00
2022-11-12T08:18:34.349Z,8824.00
2022-11-12T08:19:34.335Z,8924.00
2022-11-12T08:20:34.314Z,9012.00
2022-11-12T08:21:34.315Z,9116.00
2022-11-12T08:22:34.274Z,9244.00
2022-11-12T08:23:34.255Z,9420.00
2022-11-12T08:24:34.231Z,9636.00
2022-11-12T08:25:34.212Z,9892.00
2022-11-12T08:26:34.223Z,10180.00
2022-11-12T08:27:34.169Z,10484.00
2022-11-12T08:28:34.146Z,10808.00
2022-11-12T08:29:34.191Z,11132.00
2022-11-12T08:30:34.115Z,11448.00
2022-11-12T08:31:34.120Z,11784.00
2022-11-12T08:32:34.142Z,12280.00
2022-11-12T08:33:34.049Z,12956.00
2022-11-12T08:34:34.035Z,12960.00
2022-11-12T08:35:34.015Z,12608.00
2022-11-12T08:36:34.009Z,12616.00
2022-11-12T08:37:33.969Z,12652.00
2022-11-12T08:38:33.948Z,12720.00
2022-11-12T08:39:33.925Z,12828.00
2022-11-12T08:40:33.907Z,13032.00
2022-11-12T08:41:33.908Z,13284.00
2022-11-12T08:42:33.858Z,13680.00
2022-11-12T08:43:33.838Z,14224.00
2022-11-12T08:44:33.813Z,32800.00
2022-11-12T08:45:33.802Z,34080.00
2022-11-12T08:46:33.796Z,26880.00
2022-11-12T08:47:33.748Z,34208.00
2022-11-12T08:48:33.805Z,16064.00
2022-11-12T08:49:33.703Z,16672.00
2022-11-12T08:50:33.677Z,15104.00
2022-11-12T08:51:33.688Z,14156.00
2022-11-12T08:52:33.629Z,13568.00
2022-11-12T08:53:33.611Z,13260.00
2022-11-12T08:54:33.591Z,13024.00
2022-11-12T08:55:33.570Z,12872.00
2022-11-12T08:56:33.571Z,12792.00
2022-11-12T08:57:33.523Z,12732.00
2022-11-12T08:58:33.498Z,12736.00
2022-11-12T08:59:33.480Z,12800.00
2022-11-12T09:00:33.450Z,12864.00
2022-11-12T09:01:33.521Z,12996.00
2022-11-12T09:02:33.437Z,13152.00
2022-11-12T09:03:33.384Z,13320.00
2022-11-12T09:04:33.456Z,13508.00
2022-11-12T09:05:33.348Z,13612.00
2022-11-12T09:06:33.345Z,13660.00
2022-11-12T09:07:49.515Z,13612.00
2022-11-12T09:08:35.290Z,13548.00
2022-11-12T09:09:33.253Z,13436.00
2022-11-12T09:10:33.233Z,13372.00
2022-11-12T09:11:33.240Z,13372.00
2022-11-12T09:12:33.207Z,13452.00
2022-11-12T09:13:33.233Z,13576.00
2022-11-12T09:14:33.146Z,13824.00
2022-11-12T09:15:37.821Z,14052.00
2022-11-12T09:16:35.141Z,14292.00
2022-11-12T09:17:33.081Z,14412.00
2022-11-12T09:18:33.056Z,14488.00
2022-11-12T09:19:33.037Z,14576.00
2022-11-12T09:20:33.079Z,14580.00
2022-11-12T09:21:33.058Z,14864.00
2022-11-12T09:22:32.966Z,15424.00
2022-11-12T09:23:32.943Z,15808.00
2022-11-12T09:24:32.921Z,16352.00
2022-11-12T09:25:32.902Z,16800.00
2022-11-12T09:26:32.874Z,16736.00
2022-11-12T09:27:32.886Z,16896.00
2022-11-12T09:28:32.837Z,16864.00
2022-11-12T09:29:32.809Z,17184.00
2022-11-12T09:30:32.787Z,18016.00
2022-11-12T09:31:32.795Z,18272.00
2022-11-12T09:32:32.740Z,19040.00
2022-11-12T09:33:32.720Z,21088.00
2022-11-12T09:34:32.705Z,22432.00
2022-11-12T09:35:32.675Z,28352.00
2022-11-12T09:36:38.599Z,22624.00
2022-11-12T09:37:34.637Z,23104.00
2022-11-12T09:38:32.611Z,24384.00
2022-11-12T09:39:32.591Z,24416.00
2022-11-12T09:40:32.573Z,31072.00
2022-11-12T09:41:32.573Z,28928.00
2022-11-12T09:42:33.532Z,27552.00
2022-11-12T09:43:32.513Z,28416.00
2022-11-12T09:44:36.703Z,33760.00
2022-11-12T09:45:33.471Z,29248.00
2022-11-12T09:46:32.478Z,25280.00
2022-11-12T09:47:32.430Z,25536.00
2022-11-12T09:48:32.411Z,23904.00
2022-11-12T09:49:32.398Z,21216.00
2022-11-12T09:50:32.370Z,21664.00
2022-11-12T09:51:32.380Z,19520.00
2022-11-12T09:52:32.408Z,20768.00
2022-11-12T09:53:32.314Z,20672.00
2022-11-12T09:54:32.300Z,18624.00
2022-11-12T09:55:32.273Z,18400.00
2022-11-12T09:56:32.291Z,19040.00
2022-11-12T09:57:32.235Z,18752.00
2022-11-12T09:58:32.216Z,21056.00
2022-11-12T09:59:32.194Z,20352.00
2022-11-12T10:00:32.176Z,20928.00
2022-11-12T10:01:32.214Z,21280.00
2022-11-12T10:02:32.138Z,21760.00
2022-11-12T10:03:32.113Z,21440.00
2022-11-12T10:04:33.106Z,22752.00
2022-11-12T10:05:32.084Z,23296.00
2022-11-12T10:06:32.099Z,23840.00
2022-11-12T10:07:32.048Z,18528.00
2022-11-12T10:08:32.103Z,17024.00
2022-11-12T10:09:32.009Z,16384.00
2022-11-12T10:10:31.993Z,14880.00
2022-11-12T10:11:31.971Z,14120.00
2022-11-12T10:12:31.979Z,14156.00
2022-11-12T10:13:31.940Z,14092.00
2022-11-12T10:14:31.916Z,13876.00
2022-11-12T10:15:31.898Z,14408.00
2022-11-12T10:16:31.904Z,13968.00
2022-11-12T10:17:31.883Z,13608.00
2022-11-12T10:18:31.839Z,12844.00
2022-11-12T10:19:31.828Z,12580.00
2022-11-12T10:20:37.473Z,12632.00
2022-11-12T10:21:33.809Z,12156.00
2022-11-12T10:22:31.765Z,12076.00
2022-11-12T10:23:31.748Z,12108.00
2022-11-12T10:24:31.806Z,12104.00
2022-11-12T10:25:31.716Z,12156.00
2022-11-12T10:26:31.696Z,12452.00
2022-11-12T10:27:31.701Z,12568.00
2022-11-12T10:28:37.114Z,12832.00
2022-11-12T10:29:33.635Z,12436.00
2022-11-12T10:30:31.614Z,12484.00
2022-11-12T10:31:31.599Z,12292.00
2022-11-12T10:32:31.606Z,12568.00
2022-11-12T10:33:31.552Z,12596.00
2022-11-12T10:34:31.539Z,12204.00
2022-11-12T10:35:31.517Z,12104.00
2022-11-12T10:36:31.498Z,12088.00
2022-11-12T10:37:31.504Z,11812.00
2022-11-12T10:38:31.460Z,11728.00
2022-11-12T10:39:31.466Z,11528.00
2022-11-12T10:40:31.494Z,11424.00
2022-11-12T10:41:31.400Z,11364.00
2022-11-12T10:42:31.403Z,11384.00
2022-11-12T10:43:31.368Z,11492.00
2022-11-12T10:44:31.337Z,11424.00
2022-11-12T10:45:31.323Z,11404.00
2022-11-12T10:46:31.302Z,11416.00
2022-11-12T10:47:31.313Z,11568.00
2022-11-12T10:48:31.468Z,11440.00
2022-11-12T10:49:31.242Z,11428.00
2022-11-12T10:50:31.230Z,11492.00
2022-11-12T10:51:31.204Z,11444.00
2022-11-12T10:52:31.216Z,11416.00
2022-11-12T10:53:31.165Z,11340.00
2022-11-12T10:54:31.152Z,11396.00
2022-11-12T10:55:31.129Z,11436.00
2022-11-12T10:56:31.182Z,11252.00
2022-11-12T10:57:31.116Z,11208.00
2022-11-12T10:58:31.075Z,11188.00
2022-11-12T10:59:31.051Z,11200.00
2022-11-12T11:00:31.030Z,11216.00
2022-11-12T11:01:35.331Z,11132.00
2022-11-12T11:02:32.017Z,11088.00
2022-11-12T11:03:30.973Z,11064.00
2022-11-12T11:04:30.955Z,11100.00
2022-11-12T11:05:30.933Z,11104.00
2022-11-12T11:06:30.917Z,11052.00
2022-11-12T11:07:30.912Z,10960.00
2022-11-12T11:08:36.003Z,10772.00
2022-11-12T11:09:31.859Z,10664.00
2022-11-12T11:10:30.838Z,10552.00
2022-11-12T11:11:30.825Z,10336.00
2022-11-12T11:12:30.907Z,10256.00
2022-11-12T11:13:30.783Z,10096.00
2022-11-12T11:14:30.768Z,10080.00
2022-11-12T11:15:30.749Z,10004.00
2022-11-12T11:16:30.722Z,10028.00
2022-11-12T11:17:30.734Z,9796.00
2022-11-12T11:18:30.733Z,9608.00
2022-11-12T11:19:30.678Z,9572.00
2022-11-12T11:20:30.654Z,9408.00
2022-11-12T11:21:30.630Z,9388.00
2022-11-12T11:22:30.638Z,9308.00
2022-11-12T11:23:30.587Z,9248.00
2022-11-12T11:24:30.580Z,9240.00
2022-11-12T11:25:30.552Z,9332.00
2022-11-12T11:26:30.535Z,9360.00
2022-11-12T11:27:30.541Z,9284.00
2022-11-12T11:28:30.570Z,9316.00
2022-11-12T11:29:30.476Z,9200.00
2022-11-12T11:30:30.457Z,9112.00
2022-11-12T11:31:30.437Z,9080.00
2022-11-12T11:32:36.097Z,8920.00
2022-11-12T11:33:32.399Z,8836.00
2022-11-12T11:34:30.376Z,8772.00
2022-11-12T11:35:30.364Z,8780.00
2022-11-12T11:36:30.351Z,8780.00
2022-11-12T11:37:30.352Z,8736.00
2022-11-12T11:38:30.420Z,8604.00
2022-11-12T11:39:30.288Z,8556.00
2022-11-12T11:40:30.274Z,8460.00
2022-11-12T11:41:30.339Z,8480.00
2022-11-12T11:42:30.258Z,8420.00
2022-11-12T11:43:30.215Z,8436.00
2022-11-12T11:44:30.358Z,8516.00
2022-11-12T11:45:30.177Z,8576.00
2022-11-12T11:46:30.155Z,8584.00
2022-11-12T11:47:44.019Z,8592.00
2022-11-12T11:48:32.251Z,8624.00
2022-11-12T11:49:30.244Z,8620.00
2022-11-12T11:50:30.194Z,8604.00
2022-11-12T11:51:30.057Z,8536.00
2022-11-12T11:52:30.099Z,8492.00
2022-11-12T11:53:30.018Z,8400.00
2022-11-12T11:54:29.996Z,8268.00
2022-11-12T11:55:29.976Z,8156.00
2022-11-12T11:56:29.958Z,8100.00
2022-11-12T11:57:29.964Z,8020.00
2022-11-12T11:58:30.159Z,7960.00
2022-11-12T11:59:29.901Z,7936.00
2022-11-12T12:00:29.956Z,7916.00
2022-11-12T12:01:29.866Z,7872.00
2022-11-12T12:02:29.874Z,7772.00
2022-11-12T12:03:32.910Z,7676.00
2022-11-12T12:04:30.808Z,7544.00
2022-11-12T12:05:29.792Z,7464.00
2022-11-12T12:06:29.768Z,7344.00
2022-11-12T12:07:29.777Z,7312.00
2022-11-12T12:08:29.936Z,7176.00
2022-11-12T12:09:29.708Z,7108.00
2022-11-12T12:10:46.635Z,7068.00
2022-11-12T12:11:31.676Z,7004.00
2022-11-12T12:12:29.675Z,6932.00
2022-11-12T12:13:29.631Z,6872.00
2022-11-12T12:14:29.611Z,6832.00
2022-11-12T12:15:29.591Z,6728.00
2022-11-12T12:16:29.645Z,6632.00
2022-11-12T12:17:31.997Z,6608.00
2022-11-12T12:18:30.652Z,6584.00
2022-11-12T12:19:29.513Z,6540.00
2022-11-12T12:20:29.494Z,6500.00
2022-11-12T12:21:29.475Z,6432.00
2022-11-12T12:22:29.486Z,6388.00
2022-11-12T12:23:29.427Z,6388.00
2022-11-12T12:24:29.414Z,6356.00
2022-11-12T12:25:29.389Z,6324.00
2022-11-12T12:26:29.372Z,6320.00
2022-11-12T12:27:29.373Z,6296.00
2022-11-12T12:28:29.680Z,6248.00
2022-11-12T12:29:29.309Z,6188.00
2022-11-12T12:30:29.295Z,6164.00
2022-11-12T12:31:29.271Z,6152.00
2022-11-12T12:32:29.353Z,6124.00
2022-11-12T12:33:29.233Z,6104.00
2022-11-12T12:34:29.208Z,6124.00
2022-11-12T12:35:29.188Z,6120.00